sensor_id;sensor_type;location;lat;lon;timestamp;temperature;humidity
18073;DHT22;9161;47.348;9.648;2023-06-14T00:00:31;13.60;97.70
18073;DHT22;9161;47.348;9.648;2023-06-14T00:05:36;13.50;98.00
18073;DHT22;9161;47.348;9.648;2023-06-14T00:10:41;13.40;98.60
18073;DHT22;9161;47.348;9.648;2023-06-14T00:15:43;13.30;98.90
18073;DHT22;9161;47.348;9.648;2023-06-14T00:20:47;13.20;99.80
18073;DHT22;9161;47.348;9.648;2023-06-14T00:25:50;13.00;99.90
18073;DHT22;9161;47.348;9.648;2023-06-14T00:30:52;12.70;99.90
18073;DHT22;9161;47.348;9.648;2023-06-14T00:35:55;12.50;99.90
18073;DHT22;9161;47.348;9.648;2023-06-14T00:40:57;12.30;99.90
18073;DHT22;9161;47.348;9.648;2023-06-14T00:46:00;12.20;99.90
18073;DHT22;9161;47.348;9.648;2023-06-14T00:51:06;12.60;99.90
18073;DHT22;9161;47.348;9.648;2023-06-14T00:56:08;13.00;99.90
18073;DHT22;9161;47.348;9.648;2023-06-14T01:01:10;12.70;99.90
18073;DHT22;9161;47.348;9.648;2023-06-14T01:06:21;12.40;99.90
18073;DHT22;9161;47.348;9.648;2023-06-14T01:11:34;12.60;99.90
18073;DHT22;9161;47.348;9.648;2023-06-14T01:16:37;12.30;99.90
18073;DHT22;9161;47.348;9.648;2023-06-14T01:21:41;12.00;99.90
18073;DHT22;9161;47.348;9.648;2023-06-14T01:26:45;11.80;99.90
18073;DHT22;9161;47.348;9.648;2023-06-14T01:31:53;11.80;99.90
18073;DHT22;9161;47.348;9.648;2023-06-14T01:37:00;11.70;99.90
18073;DHT22;9161;47.348;9.648;2023-06-14T01:42:06;11.70;99.90
18073;DHT22;9161;47.348;9.648;2023-06-14T01:47:11;11.40;99.90
18073;DHT22;9161;47.348;9.648;2023-06-14T01:52:13;11.20;99.90
18073;DHT22;9161;47.348;9.648;2023-06-14T01:57:18;11.20;99.90
18073;DHT22;9161;47.348;9.648;2023-06-14T02:02:20;11.20;99.90
18073;DHT22;9161;47.348;9.648;2023-06-14T02:07:24;11.10;99.90
18073;DHT22;9161;47.348;9.648;2023-06-14T02:12:28;11.10;99.90
18073;DHT22;9161;47.348;9.648;2023-06-14T02:17:30;11.10;99.90
18073;DHT22;9161;47.348;9.648;2023-06-14T02:22:32;11.40;99.90
18073;DHT22;9161;47.348;9.648;2023-06-14T02:27:36;11.30;99.90
18073;DHT22;9161;47.348;9.648;2023-06-14T02:32:40;11.10;99.90
18073;DHT22;9161;47.348;9.648;2023-06-14T02:37:43;11.00;99.90
18073;DHT22;9161;47.348;9.648;2023-06-14T02:42:47;11.20;99.90
18073;DHT22;9161;47.348;9.648;2023-06-14T02:47:49;11.20;99.90
18073;DHT22;9161;47.348;9.648;2023-06-14T02:52:52;11.50;99.90
18073;DHT22;9161;47.348;9.648;2023-06-14T02:57:58;11.30;99.90
18073;DHT22;9161;47.348;9.648;2023-06-14T03:03:00;11.50;99.90
18073;DHT22;9161;47.348;9.648;2023-06-14T03:08:03;11.50;99.90
18073;DHT22;9161;47.348;9.648;2023-06-14T03:13:08;11.30;99.90
18073;DHT22;9161;47.348;9.648;2023-06-14T03:18:11;10.90;99.90
18073;DHT22;9161;47.348;9.648;2023-06-14T03:23:14;10.60;99.90
18073;DHT22;9161;47.348;9.648;2023-06-14T03:28:17;10.40;99.90
18073;DHT22;9161;47.348;9.648;2023-06-14T03:33:20;10.20;99.90
18073;DHT22;9161;47.348;9.648;2023-06-14T03:38:22;10.20;99.90
18073;DHT22;9161;47.348;9.648;2023-06-14T03:43:25;10.30;99.90
18073;DHT22;9161;47.348;9.648;2023-06-14T03:48:27;10.90;99.90
18073;DHT22;9161;47.348;9.648;2023-06-14T03:53:31;11.00;99.90
18073;DHT22;9161;47.348;9.648;2023-06-14T03:58:37;11.20;99.90
18073;DHT22;9161;47.348;9.648;2023-06-14T04:03:42;11.10;99.90
18073;DHT22;9161;47.348;9.648;2023-06-14T04:08:51;11.10;99.90
18073;DHT22;9161;47.348;9.648;2023-06-14T04:13:55;11.30;99.90
18073;DHT22;9161;47.348;9.648;2023-06-14T04:18:58;11.30;99.90
18073;DHT22;9161;47.348;9.648;2023-06-14T04:24:00;11.50;99.90
18073;DHT22;9161;47.348;9.648;2023-06-14T04:29:03;11.80;99.90
18073;DHT22;9161;47.348;9.648;2023-06-14T04:34:06;12.00;99.90
18073;DHT22;9161;47.348;9.648;2023-06-14T04:39:08;12.30;99.90
18073;DHT22;9161;47.348;9.648;2023-06-14T04:44:13;12.60;99.90
18073;DHT22;9161;47.348;9.648;2023-06-14T04:49:18;13.00;99.90
18073;DHT22;9161;47.348;9.648;2023-06-14T04:54:20;13.50;99.90
18073;DHT22;9161;47.348;9.648;2023-06-14T04:59:24;13.90;99.90
18073;DHT22;9161;47.348;9.648;2023-06-14T05:04:26;14.30;99.90
18073;DHT22;9161;47.348;9.648;2023-06-14T05:09:29;14.70;99.90
18073;DHT22;9161;47.348;9.648;2023-06-14T05:14:33;15.10;99.90
18073;DHT22;9161;47.348;9.648;2023-06-14T05:19:35;15.50;99.90
18073;DHT22;9161;47.348;9.648;2023-06-14T05:24:37;15.90;99.90
18073;DHT22;9161;47.348;9.648;2023-06-14T05:29:40;16.30;99.90
18073;DHT22;9161;47.348;9.648;2023-06-14T05:34:43;16.60;99.90
18073;DHT22;9161;47.348;9.648;2023-06-14T05:39:45;16.80;99.90
18073;DHT22;9161;47.348;9.648;2023-06-14T05:44:49;16.60;99.90
18073;DHT22;9161;47.348;9.648;2023-06-14T05:49:51;16.70;99.90
18073;DHT22;9161;47.348;9.648;2023-06-14T05:54:53;17.10;99.90
18073;DHT22;9161;47.348;9.648;2023-06-14T05:59:56;17.40;99.90
18073;DHT22;9161;47.348;9.648;2023-06-14T06:04:59;17.80;99.90
18073;DHT22;9161;47.348;9.648;2023-06-14T06:10:02;18.00;99.90
18073;DHT22;9161;47.348;9.648;2023-06-14T06:15:06;18.30;99.50
18073;DHT22;9161;47.348;9.648;2023-06-14T06:20:13;18.70;97.80
18073;DHT22;9161;47.348;9.648;2023-06-14T06:25:15;19.00;97.90
18073;DHT22;9161;47.348;9.648;2023-06-14T06:30:20;19.20;97.70
18073;DHT22;9161;47.348;9.648;2023-06-14T06:35:22;19.60;97.60
18073;DHT22;9161;47.348;9.648;2023-06-14T06:40:24;19.80;97.40
18073;DHT22;9161;47.348;9.648;2023-06-14T06:45:28;20.10;97.40
18073;DHT22;9161;47.348;9.648;2023-06-14T06:50:31;20.40;96.50
18073;DHT22;9161;47.348;9.648;2023-06-14T06:55:34;20.80;95.50
18073;DHT22;9161;47.348;9.648;2023-06-14T07:00:37;21.10;95.00
18073;DHT22;9161;47.348;9.648;2023-06-14T07:05:39;21.40;96.00
18073;DHT22;9161;47.348;9.648;2023-06-14T07:10:41;21.50;95.90
18073;DHT22;9161;47.348;9.648;2023-06-14T07:15:45;21.70;95.50
18073;DHT22;9161;47.348;9.648;2023-06-14T07:20:47;21.90;95.10
18073;DHT22;9161;47.348;9.648;2023-06-14T07:25:49;22.00;95.60
18073;DHT22;9161;47.348;9.648;2023-06-14T07:30:52;21.60;93.70
18073;DHT22;9161;47.348;9.648;2023-06-14T07:35:55;22.10;95.20
18073;DHT22;9161;47.348;9.648;2023-06-14T07:40:57;22.60;94.10
18073;DHT22;9161;47.348;9.648;2023-06-14T07:46:01;23.00;93.10
18073;DHT22;9161;47.348;9.648;2023-06-14T07:51:07;22.80;91.60
18073;DHT22;9161;47.348;9.648;2023-06-14T07:56:09;23.10;91.20
18073;DHT22;9161;47.348;9.648;2023-06-14T08:01:13;22.90;91.00
18073;DHT22;9161;47.348;9.648;2023-06-14T08:06:16;23.80;92.10
18073;DHT22;9161;47.348;9.648;2023-06-14T08:11:18;23.90;92.10
18073;DHT22;9161;47.348;9.648;2023-06-14T08:16:21;24.00;91.10
18073;DHT22;9161;47.348;9.648;2023-06-14T08:21:23;24.00;91.00
18073;DHT22;9161;47.348;9.648;2023-06-14T08:26:30;24.50;92.30
18073;DHT22;9161;47.348;9.648;2023-06-14T08:31:34;25.20;90.10
18073;DHT22;9161;47.348;9.648;2023-06-14T08:36:36;25.40;90.50
18073;DHT22;9161;47.348;9.648;2023-06-14T08:41:39;25.80;88.00
18073;DHT22;9161;47.348;9.648;2023-06-14T08:46:43;26.10;90.10
18073;DHT22;9161;47.348;9.648;2023-06-14T08:51:45;26.10;91.40
18073;DHT22;9161;47.348;9.648;2023-06-14T08:56:48;26.60;91.00
18073;DHT22;9161;47.348;9.648;2023-06-14T09:01:53;26.80;90.40
18073;DHT22;9161;47.348;9.648;2023-06-14T09:07:12;25.90;88.50
18073;DHT22;9161;47.348;9.648;2023-06-14T09:12:14;26.50;90.80
18073;DHT22;9161;47.348;9.648;2023-06-14T09:17:18;26.30;85.90
18073;DHT22;9161;47.348;9.648;2023-06-14T09:22:20;27.10;90.00
18073;DHT22;9161;47.348;9.648;2023-06-14T09:27:22;26.50;88.00
18073;DHT22;9161;47.348;9.648;2023-06-14T09:32:26;26.90;91.00
18073;DHT22;9161;47.348;9.648;2023-06-14T09:37:29;27.10;88.70
18073;DHT22;9161;47.348;9.648;2023-06-14T09:42:31;27.80;87.30
18073;DHT22;9161;47.348;9.648;2023-06-14T09:47:38;28.30;85.80
18073;DHT22;9161;47.348;9.648;2023-06-14T09:52:52;28.70;85.80
18073;DHT22;9161;47.348;9.648;2023-06-14T09:58:00;28.90;83.30
18073;DHT22;9161;47.348;9.648;2023-06-14T10:03:13;29.10;83.20
18073;DHT22;9161;47.348;9.648;2023-06-14T10:08:18;28.70;83.10
18073;DHT22;9161;47.348;9.648;2023-06-14T10:13:21;29.70;84.50
18073;DHT22;9161;47.348;9.648;2023-06-14T10:18:31;29.50;83.70
18073;DHT22;9161;47.348;9.648;2023-06-14T10:23:38;29.30;81.30
18073;DHT22;9161;47.348;9.648;2023-06-14T10:28:56;29.90;82.40
18073;DHT22;9161;47.348;9.648;2023-06-14T10:34:00;30.10;81.60
18073;DHT22;9161;47.348;9.648;2023-06-14T10:39:05;30.00;84.10
18073;DHT22;9161;47.348;9.648;2023-06-14T10:44:31;30.70;83.00
18073;DHT22;9161;47.348;9.648;2023-06-14T10:49:39;31.40;82.90
18073;DHT22;9161;47.348;9.648;2023-06-14T10:55:03;32.00;81.90
18073;DHT22;9161;47.348;9.648;2023-06-14T11:00:07;32.10;76.10
18073;DHT22;9161;47.348;9.648;2023-06-14T11:05:24;31.40;71.50
18073;DHT22;9161;47.348;9.648;2023-06-14T11:10:36;30.90;76.50
18073;DHT22;9161;47.348;9.648;2023-06-14T11:15:39;31.30;74.40
18073;DHT22;9161;47.348;9.648;2023-06-14T11:20:47;31.50;75.20
18073;DHT22;9161;47.348;9.648;2023-06-14T11:25:52;32.10;73.70
18073;DHT22;9161;47.348;9.648;2023-06-14T11:31:01;33.00;73.20
18073;DHT22;9161;47.348;9.648;2023-06-14T11:36:06;32.30;76.20
18073;DHT22;9161;47.348;9.648;2023-06-14T11:41:09;33.50;73.40
18073;DHT22;9161;47.348;9.648;2023-06-14T11:46:14;34.00;72.80
18073;DHT22;9161;47.348;9.648;2023-06-14T11:51:20;33.20;73.50
18073;DHT22;9161;47.348;9.648;2023-06-14T11:56:22;32.70;70.30
18073;DHT22;9161;47.348;9.648;2023-06-14T12:01:24;33.10;66.90
18073;DHT22;9161;47.348;9.648;2023-06-14T12:06:29;33.30;63.30
18073;DHT22;9161;47.348;9.648;2023-06-14T12:11:35;32.40;68.50
18073;DHT22;9161;47.348;9.648;2023-06-14T12:16:38;32.20;66.00
18073;DHT22;9161;47.348;9.648;2023-06-14T12:21:43;33.10;61.50
18073;DHT22;9161;47.348;9.648;2023-06-14T12:26:47;33.20;59.50
18073;DHT22;9161;47.348;9.648;2023-06-14T12:31:49;34.70;68.50
18073;DHT22;9161;47.348;9.648;2023-06-14T12:36:53;35.50;61.90
18073;DHT22;9161;47.348;9.648;2023-06-14T12:41:55;34.70;60.80
18073;DHT22;9161;47.348;9.648;2023-06-14T12:46:57;33.30;58.00
18073;DHT22;9161;47.348;9.648;2023-06-14T12:52:01;33.80;60.80
18073;DHT22;9161;47.348;9.648;2023-06-14T12:57:04;34.90;63.50
18073;DHT22;9161;47.348;9.648;2023-06-14T13:02:13;35.80;65.20
18073;DHT22;9161;47.348;9.648;2023-06-14T13:07:17;34.50;58.50
18073;DHT22;9161;47.348;9.648;2023-06-14T13:12:19;35.00;58.80
18073;DHT22;9161;47.348;9.648;2023-06-14T13:17:21;34.30;58.80
18073;DHT22;9161;47.348;9.648;2023-06-14T13:22:25;34.10;57.60
18073;DHT22;9161;47.348;9.648;2023-06-14T13:27:28;34.40;59.20
18073;DHT22;9161;47.348;9.648;2023-06-14T13:32:30;35.40;59.00
18073;DHT22;9161;47.348;9.648;2023-06-14T13:37:34;35.60;61.00
18073;DHT22;9161;47.348;9.648;2023-06-14T13:42:36;35.70;56.20
18073;DHT22;9161;47.348;9.648;2023-06-14T13:47:39;36.10;57.20
18073;DHT22;9161;47.348;9.648;2023-06-14T13:52:42;35.40;57.50
18073;DHT22;9161;47.348;9.648;2023-06-14T13:57:45;36.20;53.70
18073;DHT22;9161;47.348;9.648;2023-06-14T14:02:47;36.10;54.70
18073;DHT22;9161;47.348;9.648;2023-06-14T14:07:52;35.40;53.10
18073;DHT22;9161;47.348;9.648;2023-06-14T14:12:55;35.80;57.20
18073;DHT22;9161;47.348;9.648;2023-06-14T14:17:57;37.00;58.20
18073;DHT22;9161;47.348;9.648;2023-06-14T14:23:01;36.30;54.70
18073;DHT22;9161;47.348;9.648;2023-06-14T14:28:03;36.60;57.40
18073;DHT22;9161;47.348;9.648;2023-06-14T14:33:06;36.80;52.80
18073;DHT22;9161;47.348;9.648;2023-06-14T14:38:10;36.80;53.30
18073;DHT22;9161;47.348;9.648;2023-06-14T14:43:12;34.10;52.90
18073;DHT22;9161;47.348;9.648;2023-06-14T14:48:14;34.70;55.50
18073;DHT22;9161;47.348;9.648;2023-06-14T14:53:18;35.20;52.60
18073;DHT22;9161;47.348;9.648;2023-06-14T14:58:20;35.60;56.30
18073;DHT22;9161;47.348;9.648;2023-06-14T15:03:22;35.50;54.30
18073;DHT22;9161;47.348;9.648;2023-06-14T15:08:26;36.20;52.70
18073;DHT22;9161;47.348;9.648;2023-06-14T15:13:28;34.00;54.50
18073;DHT22;9161;47.348;9.648;2023-06-14T15:18:30;34.10;54.20
18073;DHT22;9161;47.348;9.648;2023-06-14T15:23:33;33.60;55.20
18073;DHT22;9161;47.348;9.648;2023-06-14T15:28:35;33.10;55.00
18073;DHT22;9161;47.348;9.648;2023-06-14T15:33:37;32.90;56.30
18073;DHT22;9161;47.348;9.648;2023-06-14T15:38:41;33.30;54.90
18073;DHT22;9161;47.348;9.648;2023-06-14T15:43:44;33.30;55.50
18073;DHT22;9161;47.348;9.648;2023-06-14T15:48:46;31.80;53.90
18073;DHT22;9161;47.348;9.648;2023-06-14T15:53:50;32.00;54.20
18073;DHT22;9161;47.348;9.648;2023-06-14T15:58:53;32.10;56.80
18073;DHT22;9161;47.348;9.648;2023-06-14T16:03:55;32.00;55.90
18073;DHT22;9161;47.348;9.648;2023-06-14T16:08:58;30.90;56.10
18073;DHT22;9161;47.348;9.648;2023-06-14T16:14:03;30.30;57.30
18073;DHT22;9161;47.348;9.648;2023-06-14T16:19:05;31.00;58.10
18073;DHT22;9161;47.348;9.648;2023-06-14T16:24:10;30.90;54.40
18073;DHT22;9161;47.348;9.648;2023-06-14T16:29:15;30.70;55.50
18073;DHT22;9161;47.348;9.648;2023-06-14T16:34:19;30.50;55.00
18073;DHT22;9161;47.348;9.648;2023-06-14T16:39:23;30.50;57.90
18073;DHT22;9161;47.348;9.648;2023-06-14T16:44:26;29.90;56.20
18073;DHT22;9161;47.348;9.648;2023-06-14T16:49:28;29.80;54.70
18073;DHT22;9161;47.348;9.648;2023-06-14T16:54:32;28.90;57.20
18073;DHT22;9161;47.348;9.648;2023-06-14T16:59:35;29.00;57.50
18073;DHT22;9161;47.348;9.648;2023-06-14T17:04:38;28.80;57.60
18073;DHT22;9161;47.348;9.648;2023-06-14T17:09:42;28.60;58.70
18073;DHT22;9161;47.348;9.648;2023-06-14T17:14:45;28.20;58.10
18073;DHT22;9161;47.348;9.648;2023-06-14T17:19:52;27.80;60.50
18073;DHT22;9161;47.348;9.648;2023-06-14T17:24:57;27.50;59.30
18073;DHT22;9161;47.348;9.648;2023-06-14T17:30:00;27.40;60.20
18073;DHT22;9161;47.348;9.648;2023-06-14T17:35:04;27.20;61.50
18073;DHT22;9161;47.348;9.648;2023-06-14T17:40:09;26.90;63.70
18073;DHT22;9161;47.348;9.648;2023-06-14T17:45:12;26.60;61.60
18073;DHT22;9161;47.348;9.648;2023-06-14T17:50:15;26.20;63.10
18073;DHT22;9161;47.348;9.648;2023-06-14T17:55:20;26.20;62.90
18073;DHT22;9161;47.348;9.648;2023-06-14T18:00:23;25.90;64.80
18073;DHT22;9161;47.348;9.648;2023-06-14T18:05:35;25.40;64.50
18073;DHT22;9161;47.348;9.648;2023-06-14T18:17:30;24.60;68.70
18073;DHT22;9161;47.348;9.648;2023-06-14T18:22:33;24.10;70.90
18073;DHT22;9161;47.348;9.648;2023-06-14T18:27:36;23.70;71.90
18073;DHT22;9161;47.348;9.648;2023-06-14T18:32:41;23.40;73.60
18073;DHT22;9161;47.348;9.648;2023-06-14T18:37:48;23.30;71.70
18073;DHT22;9161;47.348;9.648;2023-06-14T18:42:51;23.00;73.10
18073;DHT22;9161;47.348;9.648;2023-06-14T18:47:55;22.80;74.70
18073;DHT22;9161;47.348;9.648;2023-06-14T18:53:00;22.70;72.80
18073;DHT22;9161;47.348;9.648;2023-06-14T18:58:03;22.60;74.70
18073;DHT22;9161;47.348;9.648;2023-06-14T19:03:08;22.30;75.20
18073;DHT22;9161;47.348;9.648;2023-06-14T19:08:11;22.10;76.90
18073;DHT22;9161;47.348;9.648;2023-06-14T19:13:17;21.80;78.10
18073;DHT22;9161;47.348;9.648;2023-06-14T19:18:22;21.60;79.60
18073;DHT22;9161;47.348;9.648;2023-06-14T19:23:25;21.70;78.30
18073;DHT22;9161;47.348;9.648;2023-06-14T19:28:29;21.70;77.70
18073;DHT22;9161;47.348;9.648;2023-06-14T19:33:33;21.80;76.20
18073;DHT22;9161;47.348;9.648;2023-06-14T19:38:37;21.60;77.30
18073;DHT22;9161;47.348;9.648;2023-06-14T19:43:40;21.20;78.80
18073;DHT22;9161;47.348;9.648;2023-06-14T19:48:46;20.80;82.20
18073;DHT22;9161;47.348;9.648;2023-06-14T19:53:54;20.30;84.50
18073;DHT22;9161;47.348;9.648;2023-06-14T19:58:57;19.90;87.60
18073;DHT22;9161;47.348;9.648;2023-06-14T20:04:01;19.50;88.80
18073;DHT22;9161;47.348;9.648;2023-06-14T20:09:05;19.20;88.70
18073;DHT22;9161;47.348;9.648;2023-06-14T20:14:16;19.10;91.00
18073;DHT22;9161;47.348;9.648;2023-06-14T20:19:20;18.90;90.50
18073;DHT22;9161;47.348;9.648;2023-06-14T20:24:23;18.60;90.00
18073;DHT22;9161;47.348;9.648;2023-06-14T20:29:27;18.60;91.20
18073;DHT22;9161;47.348;9.648;2023-06-14T20:34:35;18.40;91.10
18073;DHT22;9161;47.348;9.648;2023-06-14T20:39:38;18.60;91.20
18073;DHT22;9161;47.348;9.648;2023-06-14T20:44:41;18.50;92.00
18073;DHT22;9161;47.348;9.648;2023-06-14T20:49:45;18.20;92.50
18073;DHT22;9161;47.348;9.648;2023-06-14T20:54:48;18.30;91.20
18073;DHT22;9161;47.348;9.648;2023-06-14T20:59:50;18.30;90.90
18073;DHT22;9161;47.348;9.648;2023-06-14T21:04:56;18.20;91.50
18073;DHT22;9161;47.348;9.648;2023-06-14T21:10:00;17.90;92.70
18073;DHT22;9161;47.348;9.648;2023-06-14T21:15:02;18.40;90.70
18073;DHT22;9161;47.348;9.648;2023-06-14T21:20:07;18.00;92.70
18073;DHT22;9161;47.348;9.648;2023-06-14T21:25:10;17.60;93.00
18073;DHT22;9161;47.348;9.648;2023-06-14T21:30:15;17.80;91.50
18073;DHT22;9161;47.348;9.648;2023-06-14T21:35:20;17.70;92.20
18073;DHT22;9161;47.348;9.648;2023-06-14T21:40:22;17.80;92.60
18073;DHT22;9161;47.348;9.648;2023-06-14T21:45:27;17.50;92.90
18073;DHT22;9161;47.348;9.648;2023-06-14T21:50:31;17.30;93.50
18073;DHT22;9161;47.348;9.648;2023-06-14T21:55:33;17.60;92.50
18073;DHT22;9161;47.348;9.648;2023-06-14T22:00:35;17.50;92.40
18073;DHT22;9161;47.348;9.648;2023-06-14T22:05:39;17.30;92.90
18073;DHT22;9161;47.348;9.648;2023-06-14T22:10:44;17.20;92.90
18073;DHT22;9161;47.348;9.648;2023-06-14T22:15:46;17.20;92.40
18073;DHT22;9161;47.348;9.648;2023-06-14T22:20:50;17.50;91.80
18073;DHT22;9161;47.348;9.648;2023-06-14T22:25:54;17.40;92.70
18073;DHT22;9161;47.348;9.648;2023-06-14T22:30:56;17.40;93.30
18073;DHT22;9161;47.348;9.648;2023-06-14T22:35:59;17.10;93.70
18073;DHT22;9161;47.348;9.648;2023-06-14T22:41:05;16.70;94.70
18073;DHT22;9161;47.348;9.648;2023-06-14T22:46:14;16.50;94.80
18073;DHT22;9161;47.348;9.648;2023-06-14T22:51:25;16.40;94.90
18073;DHT22;9161;47.348;9.648;2023-06-14T22:56:27;16.20;95.30
18073;DHT22;9161;47.348;9.648;2023-06-14T23:01:32;16.00;95.70
18073;DHT22;9161;47.348;9.648;2023-06-14T23:06:36;16.20;95.60
18073;DHT22;9161;47.348;9.648;2023-06-14T23:11:39;16.10;95.70
18073;DHT22;9161;47.348;9.648;2023-06-14T23:16:42;16.20;95.20
18073;DHT22;9161;47.348;9.648;2023-06-14T23:21:51;16.10;95.40
18073;DHT22;9161;47.348;9.648;2023-06-14T23:26:57;16.00;95.60
18073;DHT22;9161;47.348;9.648;2023-06-14T23:31:59;15.80;96.60
18073;DHT22;9161;47.348;9.648;2023-06-14T23:37:04;15.60;96.40
18073;DHT22;9161;47.348;9.648;2023-06-14T23:42:07;15.60;96.60
18073;DHT22;9161;47.348;9.648;2023-06-14T23:47:11;15.40;96.90
18073;DHT22;9161;47.348;9.648;2023-06-14T23:52:14;15.10;98.20
18073;DHT22;9161;47.348;9.648;2023-06-14T23:57:18;14.90;98.10
